createdAt,value
2018-05-29T00:01:18.152Z,21.76
2018-05-29T00:03:46.183Z,21.68
2018-05-29T00:06:14.406Z,21.98
2018-05-29T00:08:42.429Z,22.05
2018-05-29T00:11:10.435Z,21.96
2018-05-29T00:13:38.507Z,21.87
2018-05-29T00:16:06.519Z,21.50
2018-05-29T00:18:34.548Z,21.32
2018-05-29T00:21:02.557Z,21.27
2018-05-29T00:23:30.796Z,21.28
2018-05-29T00:25:58.815Z,21.26
2018-05-29T00:28:26.834Z,21.42
2018-05-29T00:30:55.120Z,21.47
2018-05-29T00:33:23.150Z,21.44
2018-05-29T00:35:51.240Z,21.29
2018-05-29T00:38:19.272Z,21.23
2018-05-29T00:40:47.285Z,21.34
2018-05-29T00:43:15.320Z,21.23
2018-05-29T00:45:43.330Z,21.10
2018-05-29T00:48:11.384Z,21.15
2018-05-29T00:50:39.625Z,21.16
2018-05-29T00:53:07.648Z,21.05
2018-05-29T00:55:37.330Z,21.16
2018-05-29T00:58:05.631Z,21.02
2018-05-29T01:00:33.660Z,20.97
2018-05-29T01:03:01.655Z,20.96
2018-05-29T01:05:29.676Z,20.93
2018-05-29T01:07:57.703Z,20.74
2018-05-29T01:10:25.727Z,20.54
2018-05-29T01:12:53.741Z,20.72
2018-05-29T01:15:21.936Z,20.78
2018-05-29T01:17:50.133Z,20.69
2018-05-29T01:20:18.164Z,20.61
2018-05-29T01:22:46.671Z,20.57
2018-05-29T01:25:14.696Z,20.58
2018-05-29T01:27:42.702Z,20.51
2018-05-29T01:30:10.967Z,20.43
2018-05-29T01:32:39.849Z,20.44
2018-05-29T01:35:07.876Z,20.58
2018-05-29T01:37:35.889Z,20.43
2018-05-29T01:40:03.919Z,20.48
2018-05-29T01:42:31.932Z,20.42
2018-05-29T01:44:59.958Z,20.04
2018-05-29T01:47:27.967Z,20.20
2018-05-29T01:49:56.238Z,20.39
2018-05-29T01:52:24.254Z,20.37
2018-05-29T01:54:55.227Z,20.34
2018-05-29T01:57:23.235Z,20.29
2018-05-29T01:59:51.254Z,20.30
2018-05-29T02:02:19.260Z,20.32
2018-05-29T02:04:47.288Z,20.25
2018-05-29T02:07:17.528Z,20.27
2018-05-29T02:09:45.690Z,20.09
2018-05-29T02:12:13.727Z,20.08
2018-05-29T02:14:41.891Z,19.98
2018-05-29T02:17:10.791Z,20.10
2018-05-29T02:19:38.811Z,20.03
2018-05-29T02:22:06.817Z,19.99
2018-05-29T02:24:34.988Z,19.99
2018-05-29T02:27:03.156Z,19.88
2018-05-29T02:29:31.143Z,20.09
2018-05-29T02:31:59.308Z,20.01
2018-05-29T02:34:27.576Z,20.09
2018-05-29T02:36:55.583Z,20.22
2018-05-29T02:39:23.723Z,20.29
2018-05-29T02:41:51.988Z,20.31
2018-05-29T02:44:20.019Z,20.14
2018-05-29T02:46:48.039Z,20.12
2018-05-29T02:49:16.324Z,19.96
2018-05-29T02:51:44.595Z,19.86
2018-05-29T02:54:12.926Z,19.78
2018-05-29T02:56:41.705Z,19.85
2018-05-29T02:59:10.332Z,19.96
2018-05-29T03:01:38.362Z,20.03
2018-05-29T03:04:06.371Z,19.78
2018-05-29T03:06:34.647Z,19.67
2018-05-29T03:09:03.572Z,19.66
2018-05-29T03:11:31.663Z,19.55
2018-05-29T03:13:59.665Z,19.61
2018-05-29T03:16:27.867Z,19.57
2018-05-29T03:18:55.879Z,19.64
2018-05-29T03:21:23.912Z,19.71
2018-05-29T03:23:51.921Z,19.61
2018-05-29T03:26:19.948Z,19.61
2018-05-29T03:28:47.955Z,19.62
2018-05-29T03:31:15.984Z,19.56
2018-05-29T03:33:44.179Z,19.64
2018-05-29T03:36:12.201Z,19.64
2018-05-29T03:38:40.687Z,19.42
2018-05-29T03:41:08.888Z,19.48
2018-05-29T03:43:36.899Z,19.31
2018-05-29T03:46:04.915Z,19.42
2018-05-29T03:48:33.203Z,19.33
2018-05-29T03:51:01.277Z,19.07
2018-05-29T03:53:29.285Z,19.35
2018-05-29T03:55:57.308Z,19.50
2018-05-29T03:58:25.493Z,19.33
2018-05-29T04:00:53.764Z,19.47
2018-05-29T04:03:21.775Z,19.45
2018-05-29T04:05:49.804Z,19.25
2018-05-29T04:08:17.912Z,18.91
2018-05-29T04:10:45.932Z,19.04
2018-05-29T04:13:14.409Z,19.00
2018-05-29T04:15:42.472Z,18.91
2018-05-29T04:18:11.500Z,19.19
2018-05-29T04:20:39.525Z,19.30
2018-05-29T04:23:07.579Z,19.34
2018-05-29T04:25:35.590Z,19.25
2018-05-29T04:28:03.599Z,19.18
2018-05-29T04:30:31.610Z,19.42
2018-05-29T04:32:59.628Z,19.56
2018-05-29T04:35:28.118Z,19.60
2018-05-29T04:37:56.275Z,19.68
2018-05-29T04:40:24.289Z,19.79
2018-05-29T04:42:52.623Z,19.79
2018-05-29T04:45:20.623Z,19.72
2018-05-29T04:47:49.076Z,19.80
2018-05-29T04:50:17.079Z,19.90
2018-05-29T04:52:45.127Z,19.79
2018-05-29T04:55:13.266Z,19.83
2018-05-29T04:57:41.287Z,20.09
2018-05-29T05:00:09.295Z,20.12
2018-05-29T05:02:37.355Z,20.18
2018-05-29T05:05:05.327Z,20.24
2018-05-29T05:07:33.961Z,20.40
2018-05-29T05:10:02.206Z,20.34
2018-05-29T05:12:30.225Z,20.25
2018-05-29T05:14:58.228Z,20.42
2018-05-29T05:17:27.253Z,20.50
2018-05-29T05:19:55.255Z,20.70
2018-05-29T05:22:23.284Z,20.47
2018-05-29T05:24:54.921Z,20.56
2018-05-29T05:27:22.980Z,20.95
2018-05-29T05:29:50.995Z,21.21
2018-05-29T05:32:19.004Z,20.70
2018-05-29T05:34:47.031Z,20.94
2018-05-29T05:37:15.102Z,21.34
2018-05-29T05:39:43.124Z,21.33
2018-05-29T05:42:11.142Z,21.29
2018-05-29T05:44:39.164Z,21.44
2018-05-29T05:47:07.204Z,21.59
2018-05-29T05:49:35.878Z,21.53
2018-05-29T05:52:03.924Z,21.71
2018-05-29T05:54:32.216Z,21.69
2018-05-29T05:57:00.254Z,21.73
2018-05-29T05:59:28.277Z,21.92
2018-05-29T06:01:56.573Z,22.09
2018-05-29T06:04:24.575Z,22.24
2018-05-29T06:06:52.782Z,22.20
2018-05-29T06:09:20.927Z,22.21
2018-05-29T06:11:48.948Z,21.98
2018-05-29T06:14:16.951Z,21.75
2018-05-29T06:16:44.979Z,21.93
2018-05-29T06:19:13.008Z,21.78
2018-05-29T06:21:41.672Z,21.91
2018-05-29T06:24:09.700Z,21.85
2018-05-29T06:26:37.706Z,22.03
2018-05-29T06:29:05.735Z,22.28
2018-05-29T06:31:34.003Z,22.68
2018-05-29T06:34:02.183Z,22.75
2018-05-29T06:36:30.259Z,22.93
2018-05-29T06:38:58.286Z,22.65
2018-05-29T06:41:26.290Z,22.72
2018-05-29T06:43:54.455Z,22.84
2018-05-29T06:46:22.468Z,23.02
2018-05-29T06:48:50.494Z,23.14
2018-05-29T06:51:18.668Z,23.37
2018-05-29T06:53:46.956Z,23.32
2018-05-29T06:56:15.122Z,23.38
2018-05-29T06:58:43.151Z,23.90
2018-05-29T07:01:11.160Z,25.27
2018-05-29T07:03:39.541Z,26.81
2018-05-29T07:06:07.817Z,26.15
2018-05-29T07:08:36.119Z,26.70
2018-05-29T07:11:04.852Z,28.78
2018-05-29T07:13:32.868Z,29.70
2018-05-29T07:16:01.038Z,27.83
2018-05-29T07:18:29.071Z,28.65
2018-05-29T07:20:57.076Z,27.26
2018-05-29T07:23:25.107Z,28.16
2018-05-29T07:25:53.117Z,30.25
2018-05-29T07:28:21.416Z,30.99
2018-05-29T07:30:49.427Z,29.02
2018-05-29T07:33:17.466Z,29.83
2018-05-29T07:35:45.705Z,29.29
2018-05-29T07:38:13.745Z,29.39
2018-05-29T07:40:42.255Z,29.73
2018-05-29T07:43:10.431Z,26.97
2018-05-29T07:45:38.463Z,26.61
2018-05-29T07:48:06.743Z,26.16
2018-05-29T07:50:34.777Z,27.41
2018-05-29T07:53:03.331Z,27.10
2018-05-29T07:55:31.491Z,27.83
2018-05-29T07:57:59.667Z,27.26
2018-05-29T08:00:27.720Z,28.86
2018-05-29T08:02:55.730Z,26.41
2018-05-29T08:05:23.721Z,26.83
2018-05-29T08:07:51.746Z,26.53
2018-05-29T08:10:20.086Z,26.80
2018-05-29T08:12:48.320Z,27.07
2018-05-29T08:15:16.344Z,28.84
2018-05-29T08:17:44.660Z,28.17
2018-05-29T08:20:12.687Z,28.08
2018-05-29T08:22:40.692Z,27.55
2018-05-29T08:25:08.861Z,27.37
2018-05-29T08:27:37.143Z,27.80
2018-05-29T08:30:05.413Z,27.25
2018-05-29T08:32:33.485Z,26.91
2018-05-29T08:35:01.528Z,26.67
2018-05-29T08:37:29.732Z,26.68
2018-05-29T08:39:58.005Z,27.81
2018-05-29T08:42:26.286Z,28.63
2018-05-29T08:44:54.316Z,27.04
2018-05-29T08:47:22.740Z,26.69
2018-05-29T08:49:50.772Z,27.14
2018-05-29T08:52:18.775Z,27.28
2018-05-29T08:54:46.840Z,27.49
2018-05-29T08:57:14.844Z,27.12
2018-05-29T08:59:42.996Z,28.24
2018-05-29T09:02:11.276Z,28.60
2018-05-29T09:04:39.548Z,26.97
2018-05-29T09:07:07.591Z,26.83
2018-05-29T09:09:35.608Z,27.08
2018-05-29T09:12:03.760Z,26.59
2018-05-29T09:14:31.768Z,26.39
2018-05-29T09:16:59.792Z,26.37
2018-05-29T09:19:27.799Z,27.11
2018-05-29T09:21:56.107Z,27.00
2018-05-29T09:24:24.158Z,27.80
2018-05-29T09:26:52.755Z,27.77
2018-05-29T09:29:20.763Z,28.38
2018-05-29T09:31:48.784Z,29.27
2018-05-29T09:34:16.810Z,27.95
2018-05-29T09:36:45.094Z,27.71
2018-05-29T09:39:13.088Z,28.80
2018-05-29T09:41:41.109Z,29.07
2018-05-29T09:44:09.310Z,30.41
2018-05-29T09:46:37.467Z,30.48
2018-05-29T09:49:05.664Z,31.89
2018-05-29T09:51:33.822Z,32.67
2018-05-29T09:54:01.924Z,31.98
2018-05-29T09:56:29.959Z,33.59
2018-05-29T09:58:57.967Z,30.86
2018-05-29T10:01:25.997Z,30.34
2018-05-29T10:03:54.004Z,29.96
2018-05-29T10:06:22.026Z,30.20
2018-05-29T10:08:50.134Z,30.59
2018-05-29T10:11:18.190Z,30.88
2018-05-29T10:13:47.104Z,32.36
2018-05-29T10:16:15.129Z,33.32
2018-05-29T10:18:43.140Z,33.58
2018-05-29T10:21:11.210Z,33.18
2018-05-29T10:23:39.459Z,32.58
2018-05-29T10:26:07.490Z,32.87
2018-05-29T10:28:35.496Z,33.03
2018-05-29T10:31:03.701Z,33.39
2018-05-29T10:33:31.682Z,30.79
2018-05-29T10:35:59.700Z,30.64
2018-05-29T10:38:28.654Z,30.55
2018-05-29T10:40:57.089Z,30.67
2018-05-29T10:43:25.143Z,30.27
2018-05-29T10:45:53.300Z,30.31
2018-05-29T10:48:21.322Z,30.48
2018-05-29T10:50:49.339Z,31.87
2018-05-29T10:53:17.384Z,32.06
2018-05-29T10:55:45.383Z,33.16
2018-05-29T10:58:13.584Z,33.70
2018-05-29T11:00:41.771Z,31.03
2018-05-29T11:03:10.088Z,32.17
2018-05-29T11:05:38.349Z,32.40
2018-05-29T11:08:06.502Z,31.04
2018-05-29T11:10:34.511Z,31.49
2018-05-29T11:13:02.557Z,30.66
2018-05-29T11:15:30.581Z,30.63
2018-05-29T11:17:58.598Z,31.27
2018-05-29T11:20:26.599Z,30.84
2018-05-29T11:22:54.635Z,31.44
2018-05-29T11:25:22.783Z,31.25
2018-05-29T11:27:50.798Z,30.60
2018-05-29T11:30:18.826Z,30.40
2018-05-29T11:32:46.842Z,29.83
2018-05-29T11:35:14.851Z,30.53
2018-05-29T11:37:42.877Z,30.85
2018-05-29T11:40:11.203Z,31.13
2018-05-29T11:42:39.235Z,30.81
2018-05-29T11:45:07.247Z,30.32
2018-05-29T11:47:35.265Z,29.55
2018-05-29T11:50:03.284Z,29.23
2018-05-29T11:52:31.320Z,29.39
2018-05-29T11:54:59.497Z,30.02
2018-05-29T11:57:27.451Z,30.19
2018-05-29T12:02:28.888Z,30.77
2018-05-29T12:04:57.382Z,30.63
2018-05-29T12:07:25.388Z,30.36
2018-05-29T12:09:53.406Z,29.64
2018-05-29T12:12:25.266Z,29.58
2018-05-29T12:14:53.278Z,29.66
2018-05-29T12:17:21.571Z,29.36
2018-05-29T12:19:49.642Z,29.18
2018-05-29T12:22:17.645Z,29.76
2018-05-29T12:24:46.776Z,29.08
2018-05-29T12:27:18.071Z,29.75
2018-05-29T12:29:46.110Z,29.57
2018-05-29T12:32:14.128Z,29.55
2018-05-29T12:34:42.164Z,30.17
2018-05-29T12:37:10.175Z,30.52
2018-05-29T12:39:38.187Z,30.35
2018-05-29T12:42:06.209Z,29.66
2018-05-29T12:44:34.259Z,30.04
2018-05-29T12:47:02.278Z,30.73
2018-05-29T12:49:30.575Z,30.64
2018-05-29T12:51:58.590Z,30.69
2018-05-29T12:54:26.619Z,30.90
2018-05-29T12:56:54.683Z,31.11
2018-05-29T12:59:22.886Z,30.82
2018-05-29T13:01:50.884Z,30.90
2018-05-29T13:04:19.039Z,30.50
2018-05-29T13:06:47.064Z,29.94
2018-05-29T13:09:15.090Z,29.52
2018-05-29T13:11:43.115Z,29.34
2018-05-29T13:14:11.145Z,29.46
2018-05-29T13:16:39.416Z,29.14
2018-05-29T13:19:07.432Z,29.13
2018-05-29T13:21:35.464Z,29.17
2018-05-29T13:24:03.499Z,28.96
2018-05-29T13:26:31.520Z,28.91
2018-05-29T13:28:59.565Z,28.97
2018-05-29T13:31:27.565Z,29.01
2018-05-29T13:33:55.595Z,28.95
2018-05-29T13:36:23.621Z,28.70
2018-05-29T13:38:51.648Z,28.54
2018-05-29T13:41:19.654Z,28.34
2018-05-29T13:43:47.671Z,28.30
2018-05-29T13:46:15.679Z,28.18
2018-05-29T13:48:43.715Z,28.04
2018-05-29T13:51:11.928Z,27.92
2018-05-29T13:53:39.954Z,27.74
2018-05-29T13:56:08.160Z,27.78
2018-05-29T13:58:36.195Z,27.65
2018-05-29T14:01:04.482Z,27.51
2018-05-29T14:03:32.488Z,27.55
2018-05-29T14:06:00.523Z,27.70
2018-05-29T14:08:28.530Z,26.90
2018-05-29T14:10:56.571Z,26.09
2018-05-29T14:13:24.583Z,25.70
2018-05-29T14:15:52.605Z,24.84
2018-05-29T14:18:20.619Z,24.99
2018-05-29T14:20:48.656Z,24.86
2018-05-29T14:23:16.663Z,24.93
2018-05-29T14:25:45.192Z,24.52
2018-05-29T14:28:13.396Z,24.54
2018-05-29T14:30:41.416Z,24.69
2018-05-29T14:33:10.223Z,24.79
2018-05-29T14:35:38.252Z,24.96
2018-05-29T14:38:06.514Z,24.96
2018-05-29T14:40:34.530Z,25.16
2018-05-29T14:43:02.716Z,25.04
2018-05-29T14:45:30.736Z,25.26
2018-05-29T14:47:58.743Z,25.25
2018-05-29T14:50:26.780Z,25.40
2018-05-29T14:52:54.789Z,25.19
2018-05-29T14:55:22.819Z,25.39
2018-05-29T14:57:50.972Z,25.43
2018-05-29T15:00:18.995Z,25.13
2018-05-29T15:02:47.175Z,25.48
2018-05-29T15:05:15.207Z,25.39
2018-05-29T15:07:43.971Z,25.24
2018-05-29T15:10:12.211Z,25.13
2018-05-29T15:12:40.208Z,25.41
2018-05-29T15:15:08.239Z,25.46
2018-05-29T15:17:36.294Z,25.16
2018-05-29T15:20:04.320Z,25.12
2018-05-29T15:22:32.898Z,25.37
2018-05-29T15:25:01.243Z,25.41
2018-05-29T15:27:29.188Z,25.37
2018-05-29T15:29:57.511Z,25.53
2018-05-29T15:32:26.404Z,25.12
2018-05-29T15:34:54.625Z,24.93
2018-05-29T15:37:22.725Z,24.95
2018-05-29T15:39:51.015Z,24.76
2018-05-29T15:42:19.012Z,24.76
2018-05-29T15:44:47.024Z,24.70
2018-05-29T15:47:15.239Z,24.60
2018-05-29T15:49:43.267Z,24.49
2018-05-29T15:52:11.303Z,24.29
2018-05-29T15:54:39.295Z,24.26
2018-05-29T15:57:07.318Z,24.15
2018-05-29T15:59:36.004Z,24.13
2018-05-29T16:02:04.019Z,23.99
2018-05-29T16:04:32.048Z,24.00
2018-05-29T16:09:27.216Z,23.99
2018-05-29T16:11:55.332Z,23.95
2018-05-29T16:14:23.327Z,24.08
2018-05-29T16:16:51.567Z,24.09
2018-05-29T16:19:19.738Z,23.96
2018-05-29T16:21:47.772Z,24.02
2018-05-29T16:24:15.786Z,23.83
2018-05-29T16:26:44.513Z,23.76
2018-05-29T16:29:12.523Z,23.79
2018-05-29T16:31:40.559Z,23.56
2018-05-29T16:34:08.726Z,23.17
2018-05-29T16:36:36.752Z,23.42
2018-05-29T16:39:05.752Z,23.45
2018-05-29T16:41:34.024Z,23.34
2018-05-29T16:44:02.864Z,23.17
2018-05-29T16:46:31.206Z,23.43
2018-05-29T16:48:59.268Z,23.46
2018-05-29T16:51:27.271Z,23.54
2018-05-29T16:53:55.403Z,23.50
2018-05-29T16:56:23.452Z,23.35
2018-05-29T16:58:51.451Z,23.31
2018-05-29T17:01:19.479Z,23.44
2018-05-29T17:03:47.491Z,23.34
2018-05-29T17:06:15.511Z,23.24
2018-05-29T17:08:43.519Z,23.12
2018-05-29T17:11:11.685Z,23.15
2018-05-29T17:13:39.751Z,23.07
2018-05-29T17:16:07.796Z,22.76
2018-05-29T17:18:36.019Z,22.79
2018-05-29T17:21:04.262Z,22.71
2018-05-29T17:23:32.275Z,22.91
2018-05-29T17:26:00.303Z,22.82
2018-05-29T17:28:28.555Z,22.99
2018-05-29T17:30:56.595Z,23.06
2018-05-29T17:33:24.650Z,23.22
2018-05-29T17:35:52.699Z,23.15
2018-05-29T17:38:20.761Z,23.22
2018-05-29T17:40:48.787Z,23.06
2018-05-29T17:43:16.851Z,22.77
2018-05-29T17:45:44.888Z,22.58
2018-05-29T17:48:13.033Z,22.29
2018-05-29T17:50:41.074Z,22.31
2018-05-29T17:53:09.085Z,22.40
2018-05-29T17:55:37.095Z,22.36
2018-05-29T17:58:05.369Z,22.32
2018-05-29T18:00:33.515Z,22.72
2018-05-29T18:03:01.643Z,23.04
2018-05-29T18:05:30.180Z,23.15
2018-05-29T18:07:58.280Z,23.19
2018-05-29T18:10:26.251Z,23.33
2018-05-29T18:12:54.429Z,23.27
2018-05-29T18:15:22.583Z,23.26
2018-05-29T18:17:50.619Z,23.18
2018-05-29T18:20:19.150Z,23.31
2018-05-29T18:22:47.386Z,23.33
2018-05-29T18:25:15.543Z,23.19
2018-05-29T18:27:43.683Z,23.13
2018-05-29T18:30:11.695Z,23.16
2018-05-29T18:32:39.742Z,23.25
2018-05-29T18:35:07.731Z,23.01
2018-05-29T18:37:35.747Z,22.77
2018-05-29T18:40:03.767Z,22.82
2018-05-29T18:42:31.791Z,22.87
2018-05-29T18:44:59.787Z,22.39
2018-05-29T18:47:27.871Z,22.24
2018-05-29T18:49:55.903Z,22.35
2018-05-29T18:52:23.884Z,22.38
2018-05-29T18:54:53.715Z,22.29
2018-05-29T18:57:21.755Z,22.13
2018-05-29T18:59:49.778Z,22.36
2018-05-29T19:02:17.806Z,22.42
2018-05-29T19:04:45.833Z,22.50
2018-05-29T19:07:13.860Z,22.52
2018-05-29T19:09:41.893Z,22.59
2018-05-29T19:12:09.925Z,22.66
2018-05-29T19:14:38.169Z,22.63
2018-05-29T19:17:06.321Z,22.58
2018-05-29T19:19:34.863Z,22.57
2018-05-29T19:22:02.901Z,22.47
2018-05-29T19:24:30.907Z,22.50
2018-05-29T19:26:58.915Z,22.44
2018-05-29T19:29:26.937Z,22.47
2018-05-29T19:31:55.108Z,22.53
2018-05-29T19:34:23.190Z,22.41
2018-05-29T19:36:51.216Z,22.32
2018-05-29T19:39:19.231Z,22.48
2018-05-29T19:41:47.256Z,22.51
2018-05-29T19:44:15.280Z,22.49
2018-05-29T19:46:43.319Z,22.21
2018-05-29T19:49:11.364Z,22.16
2018-05-29T19:51:39.365Z,22.32
2018-05-29T19:54:07.406Z,22.59
2018-05-29T19:56:35.412Z,22.55
2018-05-29T19:59:03.455Z,22.44
2018-05-29T20:01:31.464Z,22.11
2018-05-29T20:03:59.503Z,22.12
2018-05-29T20:06:27.521Z,21.97
2018-05-29T20:08:55.574Z,21.99
2018-05-29T20:11:23.575Z,21.83
2018-05-29T20:13:51.606Z,22.07
2018-05-29T20:16:19.851Z,22.28
2018-05-29T20:18:47.885Z,22.20
2018-05-29T20:21:15.895Z,22.37
2018-05-29T20:23:43.942Z,22.26
2018-05-29T20:26:11.955Z,22.35
2018-05-29T20:28:39.993Z,22.32
2018-05-29T20:31:08.544Z,22.23
2018-05-29T20:33:36.580Z,22.15
2018-05-29T20:36:04.600Z,22.26
2018-05-29T20:38:32.636Z,22.31
2018-05-29T20:41:00.643Z,22.20
2018-05-29T20:43:28.696Z,22.14
2018-05-29T20:45:56.708Z,21.90
2018-05-29T20:48:24.735Z,21.89
2018-05-29T20:50:52.736Z,22.07
2018-05-29T20:53:20.759Z,22.16
2018-05-29T20:55:48.767Z,22.11
2018-05-29T20:58:16.825Z,22.15
2018-05-29T21:00:44.839Z,21.94
2018-05-29T21:03:12.877Z,21.83
2018-05-29T21:05:40.893Z,22.03
2018-05-29T21:08:08.919Z,21.99
2018-05-29T21:10:36.923Z,21.92
2018-05-29T21:13:04.940Z,21.81
2018-05-29T21:15:32.995Z,21.68
2018-05-29T21:18:01.011Z,21.53
2018-05-29T21:20:29.045Z,21.44
2018-05-29T21:22:57.404Z,21.35
2018-05-29T21:25:25.607Z,21.22
2018-05-29T21:27:53.646Z,21.49
2018-05-29T21:30:21.959Z,21.65
2018-05-29T21:32:50.227Z,21.72
2018-05-29T21:35:18.276Z,21.69
2018-05-29T21:37:46.284Z,21.73
2018-05-29T21:40:14.446Z,21.71
2018-05-29T21:42:43.154Z,21.58
2018-05-29T21:45:11.195Z,21.43
2018-05-29T21:47:39.212Z,21.34
2018-05-29T21:50:07.249Z,21.25
2018-05-29T21:52:35.521Z,21.34
2018-05-29T21:55:03.592Z,21.53
2018-05-29T21:57:31.598Z,21.80
2018-05-29T21:59:59.643Z,21.78
2018-05-29T22:02:27.768Z,21.88
2018-05-29T22:04:55.801Z,21.85
2018-05-29T22:07:23.795Z,21.92
2018-05-29T22:09:51.821Z,21.98
2018-05-29T22:12:19.824Z,21.90
2018-05-29T22:14:52.727Z,21.72
2018-05-29T22:17:20.707Z,21.80
2018-05-29T22:19:48.732Z,21.68
2018-05-29T22:22:16.760Z,21.80
2018-05-29T22:24:44.803Z,21.74
2018-05-29T22:27:12.803Z,21.80
2018-05-29T22:29:40.839Z,21.64
2018-05-29T22:32:08.971Z,21.61
2018-05-29T22:34:37.013Z,21.51
2018-05-29T22:37:05.034Z,21.59
2018-05-29T22:39:33.332Z,21.64
2018-05-29T22:42:02.255Z,21.74
2018-05-29T22:44:30.292Z,21.71
2018-05-29T22:46:58.312Z,21.71
2018-05-29T22:49:26.395Z,21.49
2018-05-29T22:51:54.404Z,21.33
2018-05-29T22:54:22.426Z,21.26
2018-05-29T22:56:50.447Z,21.47
2018-05-29T22:59:18.466Z,21.56
2018-05-29T23:01:46.475Z,21.72
2018-05-29T23:04:14.517Z,21.74
2018-05-29T23:06:42.522Z,21.62
2018-05-29T23:09:10.544Z,21.71
2018-05-29T23:11:38.606Z,21.68
2018-05-29T23:14:07.123Z,21.70
2018-05-29T23:16:35.149Z,21.66
2018-05-29T23:19:03.159Z,21.59
2018-05-29T23:21:31.420Z,21.69
2018-05-29T23:23:59.446Z,21.73
2018-05-29T23:26:27.472Z,21.75
2018-05-29T23:28:55.480Z,21.67
2018-05-29T23:31:23.503Z,21.42
2018-05-29T23:33:52.226Z,21.15
2018-05-29T23:36:20.241Z,21.23
2018-05-29T23:38:48.507Z,21.44
2018-05-29T23:41:16.708Z,21.42
2018-05-29T23:43:44.975Z,21.49
2018-05-29T23:46:13.006Z,21.36
2018-05-29T23:48:41.016Z,21.18
2018-05-29T23:51:09.044Z,21.33
2018-05-29T23:53:37.056Z,21.38
2018-05-29T23:56:05.327Z,21.49
2018-05-29T23:58:33.344Z,21.57
